sensor_id;sensor_type;location;lat;lon;timestamp;pressure;altitude;pressure_sealevel;temperature;humidity
43436;BME280;36399;51.444;-2.018;2022-08-18T00:00:45;100608.25;;;16.09;100.00
43436;BME280;36399;51.444;-2.018;2022-08-18T00:03:11;100607.34;;;16.12;100.00
43436;BME280;36399;51.444;-2.018;2022-08-18T00:05:37;100614.47;;;16.01;100.00
43436;BME280;36399;51.444;-2.018;2022-08-18T00:08:04;100612.69;;;16.03;100.00
43436;BME280;36399;51.444;-2.018;2022-08-18T00:10:31;100603.88;;;16.01;100.00
43436;BME280;36399;51.444;-2.018;2022-08-18T00:12:57;100610.09;;;15.98;100.00
43436;BME280;36399;51.444;-2.018;2022-08-18T00:15:23;100603.94;;;15.95;100.00
43436;BME280;36399;51.444;-2.018;2022-08-18T00:17:50;100603.88;;;16.01;100.00
43436;BME280;36399;51.444;-2.018;2022-08-18T00:20:20;100607.44;;;16.00;100.00
43436;BME280;36399;51.444;-2.018;2022-08-18T00:22:47;100605.66;;;16.02;100.00
43436;BME280;36399;51.444;-2.018;2022-08-18T00:25:14;100607.38;;;16.06;100.00
43436;BME280;36399;51.444;-2.018;2022-08-18T00:27:40;100603.88;;;16.01;100.00
43436;BME280;36399;51.444;-2.018;2022-08-18T00:30:10;100597.69;;;16.02;100.00
43436;BME280;36399;51.444;-2.018;2022-08-18T00:32:39;100597.66;;;16.08;100.00
43436;BME280;36399;51.444;-2.018;2022-08-18T00:37:32;100601.19;;;16.07;100.00
43436;BME280;36399;51.444;-2.018;2022-08-18T00:39:58;100595.97;;;15.98;100.00
43436;BME280;36399;51.444;-2.018;2022-08-18T00:42:27;100600.38;;;15.99;100.00
43436;BME280;36399;51.444;-2.018;2022-08-18T00:44:55;100596.91;;;15.91;100.00
43436;BME280;36399;51.444;-2.018;2022-08-18T00:47:22;100594.25;;;15.92;100.00
43436;BME280;36399;51.444;-2.018;2022-08-18T00:49:50;100598.63;;;15.98;100.00
43436;BME280;36399;51.444;-2.018;2022-08-18T00:52:17;100594.25;;;15.92;100.00
43436;BME280;36399;51.444;-2.018;2022-08-18T00:54:45;100603.88;;;16.04;100.00
43436;BME280;36399;51.444;-2.018;2022-08-18T00:57:14;100588.94;;;15.92;100.00
43436;BME280;36399;51.444;-2.018;2022-08-18T00:59:52;100596.91;;;15.91;100.00
43436;BME280;36399;51.444;-2.018;2022-08-18T01:02:35;100581.03;;;15.91;100.00
43436;BME280;36399;51.444;-2.018;2022-08-18T01:05:08;100580.19;;;15.86;100.00
43436;BME280;36399;51.444;-2.018;2022-08-18T01:07:38;100582.84;;;15.83;100.00
43436;BME280;36399;51.444;-2.018;2022-08-18T01:10:09;100576.63;;;15.87;100.00
43436;BME280;36399;51.444;-2.018;2022-08-18T01:12:35;100585.50;;;15.80;100.00
43436;BME280;36399;51.444;-2.018;2022-08-18T01:15:02;100575.81;;;15.78;100.00
43436;BME280;36399;51.444;-2.018;2022-08-18T01:17:28;100580.22;;;15.80;100.00
43436;BME280;36399;51.444;-2.018;2022-08-18T01:20:17;100578.44;;;15.82;100.00
43436;BME280;36399;51.444;-2.018;2022-08-18T01:23:11;100586.31;;;15.91;100.00
43436;BME280;36399;51.444;-2.018;2022-08-18T01:25:37;100587.19;;;15.91;100.00
43436;BME280;36399;51.444;-2.018;2022-08-18T01:28:22;100581.97;;;15.84;100.00
43436;BME280;36399;51.444;-2.018;2022-08-18T01:30:50;100589.84;;;15.90;100.00
43436;BME280;36399;51.444;-2.018;2022-08-18T01:33:18;100581.94;;;15.85;100.00
43436;BME280;36399;51.444;-2.018;2022-08-18T01:35:46;100584.59;;;15.84;100.00
43436;BME280;36399;51.444;-2.018;2022-08-18T01:38:16;100579.31;;;15.81;100.00
43436;BME280;36399;51.444;-2.018;2022-08-18T01:40:44;100577.56;;;15.80;100.00
43436;BME280;36399;51.444;-2.018;2022-08-18T01:43:11;100574.94;;;15.80;100.00
43436;BME280;36399;51.444;-2.018;2022-08-18T01:45:40;100567.84;;;15.83;100.00
43436;BME280;36399;51.444;-2.018;2022-08-18T01:48:07;100572.19;;;15.92;100.00
43436;BME280;36399;51.444;-2.018;2022-08-18T01:50:33;100559.84;;;15.89;100.00
43436;BME280;36399;51.444;-2.018;2022-08-18T01:53:02;100552.81;;;15.87;100.00
43436;BME280;36399;51.444;-2.018;2022-08-18T01:55:33;100548.44;;;15.81;100.00
43436;BME280;36399;51.444;-2.018;2022-08-18T01:57:59;100557.28;;;15.80;100.00
43436;BME280;36399;51.444;-2.018;2022-08-18T02:00:27;100559.94;;;15.78;100.00
43436;BME280;36399;51.444;-2.018;2022-08-18T02:02:54;100558.19;;;15.77;100.00
43436;BME280;36399;51.444;-2.018;2022-08-18T02:05:28;100560.78;;;15.82;100.00
43436;BME280;36399;51.444;-2.018;2022-08-18T02:07:56;100566.06;;;15.84;100.00
43436;BME280;36399;51.444;-2.018;2022-08-18T02:10:22;100565.09;;;15.95;100.00
43436;BME280;36399;51.444;-2.018;2022-08-18T02:12:48;100551.09;;;15.80;100.00
43436;BME280;36399;51.444;-2.018;2022-08-18T02:15:14;100563.50;;;15.74;100.00
43436;BME280;36399;51.444;-2.018;2022-08-18T02:17:42;100556.44;;;15.75;100.00
43436;BME280;36399;51.444;-2.018;2022-08-18T02:20:12;100553.72;;;15.81;100.00
43436;BME280;36399;51.444;-2.018;2022-08-18T02:22:38;100561.69;;;15.80;100.00
43436;BME280;36399;51.444;-2.018;2022-08-18T02:25:05;100555.53;;;15.76;100.00
43436;BME280;36399;51.444;-2.018;2022-08-18T02:27:31;100557.34;;;15.68;100.00
43436;BME280;36399;51.444;-2.018;2022-08-18T02:29:59;100549.44;;;15.66;100.00
43436;BME280;36399;51.444;-2.018;2022-08-18T02:32:25;100551.19;;;15.67;100.00
43436;BME280;36399;51.444;-2.018;2022-08-18T02:34:51;100545.84;;;15.76;100.00
43436;BME280;36399;51.444;-2.018;2022-08-18T02:37:17;100543.16;;;15.80;100.00
43436;BME280;36399;51.444;-2.018;2022-08-18T02:39:43;100538.72;;;15.82;100.00
43436;BME280;36399;51.444;-2.018;2022-08-18T02:42:09;100537.81;;;15.87;100.00
43436;BME280;36399;51.444;-2.018;2022-08-18T02:44:35;100548.38;;;15.90;100.00
43436;BME280;36399;51.444;-2.018;2022-08-18T02:47:02;100545.66;;;15.98;100.00
43436;BME280;36399;51.444;-2.018;2022-08-18T02:49:28;100539.59;;;15.84;100.00
43436;BME280;36399;51.444;-2.018;2022-08-18T02:51:53;100529.84;;;15.89;100.00
43436;BME280;36399;51.444;-2.018;2022-08-18T02:54:21;100520.13;;;15.91;100.00
43436;BME280;36399;51.444;-2.018;2022-08-18T02:56:48;100524.59;;;15.84;100.00
43436;BME280;36399;51.444;-2.018;2022-08-18T02:59:19;100519.31;;;15.83;100.00
43436;BME280;36399;51.444;-2.018;2022-08-18T03:01:48;100521.97;;;15.80;100.00
43436;BME280;36399;51.444;-2.018;2022-08-18T03:04:19;100526.38;;;15.81;100.00
43436;BME280;36399;51.444;-2.018;2022-08-18T03:06:46;100521.84;;;15.95;100.00
43436;BME280;36399;51.444;-2.018;2022-08-18T03:09:15;100525.47;;;15.83;100.00
43436;BME280;36399;51.444;-2.018;2022-08-18T03:11:42;100530.72;;;15.91;100.00
43436;BME280;36399;51.444;-2.018;2022-08-18T03:14:08;100529.94;;;15.80;100.00
43436;BME280;36399;51.444;-2.018;2022-08-18T03:16:37;100538.66;;;15.89;100.00
43436;BME280;36399;51.444;-2.018;2022-08-18T03:19:03;100543.16;;;15.78;100.00
43436;BME280;36399;51.444;-2.018;2022-08-18T03:21:31;100547.63;;;15.73;100.00
43436;BME280;36399;51.444;-2.018;2022-08-18T03:23:59;100547.63;;;15.71;100.00
43436;BME280;36399;51.444;-2.018;2022-08-18T03:26:25;100533.53;;;15.69;100.00
43436;BME280;36399;51.444;-2.018;2022-08-18T03:28:53;100534.44;;;15.67;100.00
43436;BME280;36399;51.444;-2.018;2022-08-18T03:31:21;100530.03;;;15.67;100.00
43436;BME280;36399;51.444;-2.018;2022-08-18T03:33:48;100535.25;;;15.73;100.00
43436;BME280;36399;51.444;-2.018;2022-08-18T03:36:20;100536.19;;;15.66;100.00
43436;BME280;36399;51.444;-2.018;2022-08-18T03:38:50;100533.53;;;15.69;100.00
43436;BME280;36399;51.444;-2.018;2022-08-18T03:41:20;100537.94;;;15.69;100.00
43436;BME280;36399;51.444;-2.018;2022-08-18T03:43:50;100537.88;;;15.76;100.00
43436;BME280;36399;51.444;-2.018;2022-08-18T03:46:18;100535.28;;;15.70;100.00
43436;BME280;36399;51.444;-2.018;2022-08-18T03:48:45;100533.50;;;15.72;100.00
43436;BME280;36399;51.444;-2.018;2022-08-18T03:51:18;100524.72;;;15.67;100.00
43436;BME280;36399;51.444;-2.018;2022-08-18T03:53:48;100526.47;;;15.71;100.00
43436;BME280;36399;51.444;-2.018;2022-08-18T03:56:17;100535.25;;;15.73;100.00
43436;BME280;36399;51.444;-2.018;2022-08-18T03:58:47;100533.47;;;15.75;100.00
43436;BME280;36399;51.444;-2.018;2022-08-18T04:01:17;100524.69;;;15.70;100.00
43436;BME280;36399;51.444;-2.018;2022-08-18T04:03:45;100533.56;;;15.66;100.00
43436;BME280;36399;51.444;-2.018;2022-08-18T04:06:26;100527.34;;;15.70;100.00
43436;BME280;36399;51.444;-2.018;2022-08-18T04:08:54;100516.81;;;15.64;100.00
43436;BME280;36399;51.444;-2.018;2022-08-18T04:11:21;100518.59;;;15.62;100.00
43436;BME280;36399;51.444;-2.018;2022-08-18T04:13:48;100504.44;;;15.56;100.00
43436;BME280;36399;51.444;-2.018;2022-08-18T04:16:14;100510.63;;;15.56;100.00
43436;BME280;36399;51.444;-2.018;2022-08-18T04:18:40;100516.78;;;15.66;100.00
43436;BME280;36399;51.444;-2.018;2022-08-18T04:21:08;100513.28;;;15.62;100.00
43436;BME280;36399;51.444;-2.018;2022-08-18T04:23:39;100523.88;;;15.61;100.00
43436;BME280;36399;51.444;-2.018;2022-08-18T04:26:06;100517.69;;;15.54;100.00
43436;BME280;36399;51.444;-2.018;2022-08-18T04:28:33;100510.63;;;15.56;100.00
43436;BME280;36399;51.444;-2.018;2022-08-18T04:31:06;100505.38;;;15.50;100.00
43436;BME280;36399;51.444;-2.018;2022-08-18T04:33:32;100505.41;;;15.47;100.00
43436;BME280;36399;51.444;-2.018;2022-08-18T04:35:58;100513.28;;;15.53;100.00
43436;BME280;36399;51.444;-2.018;2022-08-18T04:38:27;100513.34;;;15.45;100.00
43436;BME280;36399;51.444;-2.018;2022-08-18T04:40:53;100510.72;;;15.44;100.00
43436;BME280;36399;51.444;-2.018;2022-08-18T04:43:19;100506.31;;;15.41;100.00
43436;BME280;36399;51.444;-2.018;2022-08-18T04:45:45;100507.19;;;15.42;100.00
43436;BME280;36399;51.444;-2.018;2022-08-18T04:48:11;100508.09;;;15.39;100.00
43436;BME280;36399;51.444;-2.018;2022-08-18T04:50:38;100513.38;;;15.42;100.00
43436;BME280;36399;51.444;-2.018;2022-08-18T04:53:04;100509.00;;;15.37;100.00
43436;BME280;36399;51.444;-2.018;2022-08-18T04:55:51;100508.97;;;15.38;100.00
43436;BME280;36399;51.444;-2.018;2022-08-18T04:58:21;100514.25;;;15.40;100.00
43436;BME280;36399;51.444;-2.018;2022-08-18T05:00:57;100509.00;;;15.37;100.00
43436;BME280;36399;51.444;-2.018;2022-08-18T05:03:23;100506.34;;;15.37;100.00
43436;BME280;36399;51.444;-2.018;2022-08-18T05:05:56;100509.88;;;15.37;100.00
43436;BME280;36399;51.444;-2.018;2022-08-18T05:08:25;100513.41;;;15.38;100.00
43436;BME280;36399;51.444;-2.018;2022-08-18T05:10:55;100500.16;;;15.39;100.00
43436;BME280;36399;51.444;-2.018;2022-08-18T05:13:23;100494.84;;;15.41;100.00
43436;BME280;36399;51.444;-2.018;2022-08-18T05:15:55;100497.53;;;15.35;100.00
43436;BME280;36399;51.444;-2.018;2022-08-18T05:18:23;100509.91;;;15.33;100.00
43436;BME280;36399;51.444;-2.018;2022-08-18T05:20:51;100514.28;;;15.37;100.00
43436;BME280;36399;51.444;-2.018;2022-08-18T05:23:18;100510.78;;;15.35;100.00
43436;BME280;36399;51.444;-2.018;2022-08-18T05:25:45;100509.88;;;15.36;100.00
43436;BME280;36399;51.444;-2.018;2022-08-18T05:28:11;100507.19;;;15.42;100.00
43436;BME280;36399;51.444;-2.018;2022-08-18T05:30:39;100503.66;;;15.43;100.00
43436;BME280;36399;51.444;-2.018;2022-08-18T05:33:06;100500.06;;;15.53;100.00
43436;BME280;36399;51.444;-2.018;2022-08-18T05:35:45;100496.56;;;15.51;100.00
43436;BME280;36399;51.444;-2.018;2022-08-18T05:40:44;100501.84;;;15.53;100.00
43436;BME280;36399;51.444;-2.018;2022-08-18T05:43:15;100507.09;;;15.57;100.00
43436;BME280;36399;51.444;-2.018;2022-08-18T05:45:41;100508.88;;;15.64;100.00
43436;BME280;36399;51.444;-2.018;2022-08-18T05:48:08;100505.31;;;15.68;100.00
43436;BME280;36399;51.444;-2.018;2022-08-18T05:50:36;100500.00;;;15.68;100.00
43436;BME280;36399;51.444;-2.018;2022-08-18T05:53:08;100507.94;;;15.71;100.00
43436;BME280;36399;51.444;-2.018;2022-08-18T05:58:50;100510.56;;;15.71;100.00
43436;BME280;36399;51.444;-2.018;2022-08-18T06:01:23;100509.69;;;15.71;100.00
43436;BME280;36399;51.444;-2.018;2022-08-18T06:03:55;100509.69;;;15.72;100.00
43436;BME280;36399;51.444;-2.018;2022-08-18T06:06:27;100507.03;;;15.72;100.00
43436;BME280;36399;51.444;-2.018;2022-08-18T06:11:22;100508.75;;;15.80;100.00
43436;BME280;36399;51.444;-2.018;2022-08-18T06:13:48;100504.28;;;15.85;100.00
43436;BME280;36399;51.444;-2.018;2022-08-18T06:18:57;100503.34;;;15.92;100.00
43436;BME280;36399;51.444;-2.018;2022-08-18T06:27:24;100497.13;;;15.96;100.00
43436;BME280;36399;51.444;-2.018;2022-08-18T06:30:14;100506.88;;;15.94;100.00
43436;BME280;36399;51.444;-2.018;2022-08-18T06:35:49;100498.84;;;16.03;100.00
43436;BME280;36399;51.444;-2.018;2022-08-18T06:41:10;100502.22;;;16.20;100.00
43436;BME280;36399;51.444;-2.018;2022-08-18T06:43:42;100504.94;;;16.14;100.00
43436;BME280;36399;51.444;-2.018;2022-08-18T06:46:18;100504.94;;;16.11;100.00
43436;BME280;36399;51.444;-2.018;2022-08-18T06:48:53;100513.81;;;16.07;100.00
43436;BME280;36399;51.444;-2.018;2022-08-18T06:51:22;100510.28;;;16.05;100.00
43436;BME280;36399;51.444;-2.018;2022-08-18T06:54:00;100510.28;;;16.05;100.00
43436;BME280;36399;51.444;-2.018;2022-08-18T06:56:35;100512.88;;;16.13;100.00
43436;BME280;36399;51.444;-2.018;2022-08-18T06:59:27;100516.41;;;16.12;100.00
43436;BME280;36399;51.444;-2.018;2022-08-18T07:01:56;100519.81;;;16.27;100.00
43436;BME280;36399;51.444;-2.018;2022-08-18T07:04:57;100515.31;;;16.35;100.00
43436;BME280;36399;51.444;-2.018;2022-08-18T07:07:35;100521.31;;;16.53;100.00
43436;BME280;36399;51.444;-2.018;2022-08-18T07:12:41;100524.56;;;16.84;100.00
43436;BME280;36399;51.444;-2.018;2022-08-18T07:15:11;100534.00;;;17.06;100.00
43436;BME280;36399;51.444;-2.018;2022-08-18T07:17:37;100542.13;;;16.94;100.00
43436;BME280;36399;51.444;-2.018;2022-08-18T07:20:06;100545.25;;;17.26;100.00
43436;BME280;36399;51.444;-2.018;2022-08-18T07:22:58;100541.63;;;17.33;100.00
43436;BME280;36399;51.444;-2.018;2022-08-18T07:25:29;100554.22;;;17.15;100.00
43436;BME280;36399;51.444;-2.018;2022-08-18T07:27:56;100551.31;;;17.36;100.00
43436;BME280;36399;51.444;-2.018;2022-08-18T07:30:30;100549.53;;;17.38;100.00
43436;BME280;36399;51.444;-2.018;2022-08-18T07:35:35;100560.13;;;17.38;100.00
43436;BME280;36399;51.444;-2.018;2022-08-18T07:44:20;100569.31;;;17.80;100.00
43436;BME280;36399;51.444;-2.018;2022-08-18T07:47:01;100577.44;;;17.70;100.00
43436;BME280;36399;51.444;-2.018;2022-08-18T07:49:34;100580.94;;;17.72;100.00
43436;BME280;36399;51.444;-2.018;2022-08-18T07:52:05;100575.56;;;17.76;100.00
43436;BME280;36399;51.444;-2.018;2022-08-18T07:55:03;100579.09;;;17.77;100.00
43436;BME280;36399;51.444;-2.018;2022-08-18T08:00:28;100580.72;;;17.87;100.00
43436;BME280;36399;51.444;-2.018;2022-08-18T08:08:34;100584.91;;;18.02;100.00
43436;BME280;36399;51.444;-2.018;2022-08-18T08:11:32;100586.31;;;18.25;100.00
43436;BME280;36399;51.444;-2.018;2022-08-18T08:14:22;100588.03;;;18.29;100.00
43436;BME280;36399;51.444;-2.018;2022-08-18T08:25:33;100584.16;;;18.97;100.00
43436;BME280;36399;51.444;-2.018;2022-08-18T08:33:30;100592.75;;;19.11;100.00
43436;BME280;36399;51.444;-2.018;2022-08-18T08:36:12;100593.31;;;19.28;100.00
43436;BME280;36399;51.444;-2.018;2022-08-18T08:39:11;100593.66;;;19.10;100.00
43436;BME280;36399;51.444;-2.018;2022-08-18T08:41:52;100592.13;;;18.98;100.00
43436;BME280;36399;51.444;-2.018;2022-08-18T08:46:59;100586.47;;;19.15;100.00
43436;BME280;36399;51.444;-2.018;2022-08-18T08:52:26;100579.78;;;19.80;100.00
43436;BME280;36399;51.444;-2.018;2022-08-18T08:55:11;100577.47;;;20.38;100.00
43436;BME280;36399;51.444;-2.018;2022-08-18T08:57:44;100577.56;;;20.69;100.00
43436;BME280;36399;51.444;-2.018;2022-08-18T09:00:12;100584.09;;;20.91;100.00
43436;BME280;36399;51.444;-2.018;2022-08-18T09:06:06;100578.38;;;21.37;100.00
43436;BME280;36399;51.444;-2.018;2022-08-18T09:21:49;100568.38;;;23.06;100.00
43436;BME280;36399;51.444;-2.018;2022-08-18T09:24:24;100569.13;;;23.09;100.00
43436;BME280;36399;51.444;-2.018;2022-08-18T09:29:58;100568.50;;;23.73;100.00
43436;BME280;36399;51.444;-2.018;2022-08-18T09:37:57;100578.06;;;23.80;100.00
43436;BME280;36399;51.444;-2.018;2022-08-18T09:40:57;100571.81;;;23.33;100.00
43436;BME280;36399;51.444;-2.018;2022-08-18T09:49:44;100562.34;;;22.74;100.00
43436;BME280;36399;51.444;-2.018;2022-08-18T10:00:18;100563.34;;;23.45;100.00
43436;BME280;36399;51.444;-2.018;2022-08-18T10:07:49;100544.50;;;26.64;100.00
43436;BME280;36399;51.444;-2.018;2022-08-18T10:10:48;100557.66;;;27.53;100.00
43436;BME280;36399;51.444;-2.018;2022-08-18T10:28:56;100549.88;;;24.35;100.00
43436;BME280;36399;51.444;-2.018;2022-08-18T10:31:23;100557.97;;;23.90;100.00
43436;BME280;36399;51.444;-2.018;2022-08-18T10:36:44;100560.06;;;23.13;100.00
43436;BME280;36399;51.444;-2.018;2022-08-18T10:39:22;100564.53;;;22.63;100.00
43436;BME280;36399;51.444;-2.018;2022-08-18T10:41:56;100547.16;;;22.75;100.00
43436;BME280;36399;51.444;-2.018;2022-08-18T10:44:25;100554.13;;;23.05;100.00
43436;BME280;36399;51.444;-2.018;2022-08-18T10:46:52;100547.84;;;23.06;100.00
43436;BME280;36399;51.444;-2.018;2022-08-18T10:49:22;100552.25;;;23.54;100.00
43436;BME280;36399;51.444;-2.018;2022-08-18T11:00:00;100535.09;;;26.55;100.00
43436;BME280;36399;51.444;-2.018;2022-08-18T11:05:13;100539.81;;;25.22;100.00
43436;BME280;36399;51.444;-2.018;2022-08-18T11:07:45;100540.50;;;24.86;100.00
43436;BME280;36399;51.444;-2.018;2022-08-18T11:10:19;100529.03;;;24.82;100.00
43436;BME280;36399;51.444;-2.018;2022-08-18T11:15:27;100534.03;;;24.29;100.00
43436;BME280;36399;51.444;-2.018;2022-08-18T11:18:31;100520.97;;;24.42;100.00
43436;BME280;36399;51.444;-2.018;2022-08-18T11:21:36;100515.59;;;24.00;100.00
43436;BME280;36399;51.444;-2.018;2022-08-18T11:26:59;100496.41;;;24.71;100.00
43436;BME280;36399;51.444;-2.018;2022-08-18T11:34:34;100481.28;;;26.02;100.00
43436;BME280;36399;51.444;-2.018;2022-08-18T11:37:05;100486.81;;;25.25;100.00
43436;BME280;36399;51.444;-2.018;2022-08-18T11:39:32;100487.88;;;25.02;100.00
43436;BME280;36399;51.444;-2.018;2022-08-18T11:41:58;100479.88;;;26.12;100.00
43436;BME280;36399;51.444;-2.018;2022-08-18T11:44:29;100477.44;;;27.41;100.00
43436;BME280;36399;51.444;-2.018;2022-08-18T11:47:14;100479.00;;;27.45;100.00
43436;BME280;36399;51.444;-2.018;2022-08-18T11:49:51;100480.94;;;27.59;100.00
43436;BME280;36399;51.444;-2.018;2022-08-18T11:52:26;100476.59;;;28.92;100.00
43436;BME280;36399;51.444;-2.018;2022-08-18T11:55:00;100478.19;;;28.80;100.00
43436;BME280;36399;51.444;-2.018;2022-08-18T11:57:37;100461.75;;;30.35;100.00
43436;BME280;36399;51.444;-2.018;2022-08-18T12:03:16;100453.06;;;30.30;100.00
43436;BME280;36399;51.444;-2.018;2022-08-18T12:05:53;100444.72;;;30.59;100.00
43436;BME280;36399;51.444;-2.018;2022-08-18T12:08:27;100448.53;;;31.07;100.00
43436;BME280;36399;51.444;-2.018;2022-08-18T12:11:13;100453.75;;;29.53;100.00
43436;BME280;36399;51.444;-2.018;2022-08-18T12:13:45;100452.16;;;29.08;100.00
43436;BME280;36399;51.444;-2.018;2022-08-18T12:16:39;100458.50;;;27.74;100.00
43436;BME280;36399;51.444;-2.018;2022-08-18T12:19:08;100468.19;;;27.62;100.00
43436;BME280;36399;51.444;-2.018;2022-08-18T12:22:00;100470.19;;;26.77;100.00
43436;BME280;36399;51.444;-2.018;2022-08-18T12:24:28;100474.50;;;26.47;100.00
43436;BME280;36399;51.444;-2.018;2022-08-18T12:26:55;100460.75;;;25.99;100.00
43436;BME280;36399;51.444;-2.018;2022-08-18T12:29:23;100467.31;;;25.94;100.00
43436;BME280;36399;51.444;-2.018;2022-08-18T12:31:53;100463.53;;;25.81;100.00
43436;BME280;36399;51.444;-2.018;2022-08-18T12:34:21;100461.16;;;25.56;100.00
43436;BME280;36399;51.444;-2.018;2022-08-18T12:36:54;100457.81;;;25.32;100.00
43436;BME280;36399;51.444;-2.018;2022-08-18T12:39:20;100459.25;;;25.58;100.00
43436;BME280;36399;51.444;-2.018;2022-08-18T12:41:46;100462.50;;;25.64;100.00
43436;BME280;36399;51.444;-2.018;2022-08-18T12:44:12;100450.88;;;26.69;100.00
43436;BME280;36399;51.444;-2.018;2022-08-18T12:46:39;100447.66;;;26.45;100.00
43436;BME280;36399;51.444;-2.018;2022-08-18T12:49:10;100456.75;;;26.25;100.00
43436;BME280;36399;51.444;-2.018;2022-08-18T12:51:39;100458.44;;;26.10;100.00
43436;BME280;36399;51.444;-2.018;2022-08-18T12:54:05;100451.19;;;25.94;100.00
43436;BME280;36399;51.444;-2.018;2022-08-18T12:56:31;100445.81;;;25.76;100.00
43436;BME280;36399;51.444;-2.018;2022-08-18T12:59:02;100455.34;;;26.18;100.00
43436;BME280;36399;51.444;-2.018;2022-08-18T13:01:28;100453.75;;;26.66;100.00
43436;BME280;36399;51.444;-2.018;2022-08-18T13:03:55;100460.19;;;27.61;100.00
43436;BME280;36399;51.444;-2.018;2022-08-18T13:06:22;100447.50;;;27.93;100.00
43436;BME280;36399;51.444;-2.018;2022-08-18T13:08:49;100454.53;;;26.51;100.00
43436;BME280;36399;51.444;-2.018;2022-08-18T13:11:19;100451.47;;;26.58;100.00
43436;BME280;36399;51.444;-2.018;2022-08-18T13:13:45;100456.47;;;25.78;100.00
43436;BME280;36399;51.444;-2.018;2022-08-18T13:16:11;100457.81;;;25.32;100.00
43436;BME280;36399;51.444;-2.018;2022-08-18T13:18:39;100444.16;;;24.60;100.00
43436;BME280;36399;51.444;-2.018;2022-08-18T13:21:11;100446.97;;;24.57;100.00
43436;BME280;36399;51.444;-2.018;2022-08-18T13:23:38;100442.28;;;24.41;100.00
43436;BME280;36399;51.444;-2.018;2022-08-18T13:26:08;100428.44;;;24.10;100.00
43436;BME280;36399;51.444;-2.018;2022-08-18T13:28:37;100429.66;;;24.23;100.00
43436;BME280;36399;51.444;-2.018;2022-08-18T13:31:05;100428.34;;;24.33;100.00
43436;BME280;36399;51.444;-2.018;2022-08-18T13:33:31;100428.28;;;24.93;100.00
43436;BME280;36399;51.444;-2.018;2022-08-18T13:35:57;100427.13;;;24.79;100.00
43436;BME280;36399;51.444;-2.018;2022-08-18T13:38:24;100430.81;;;24.38;100.00
43436;BME280;36399;51.444;-2.018;2022-08-18T13:40:51;100428.72;;;24.44;100.00
43436;BME280;36399;51.444;-2.018;2022-08-18T13:43:20;100428.00;;;24.80;100.00
43436;BME280;36399;51.444;-2.018;2022-08-18T13:45:48;100430.09;;;24.73;100.00
43436;BME280;36399;51.444;-2.018;2022-08-18T13:48:15;100423.91;;;24.32;100.00
43436;BME280;36399;51.444;-2.018;2022-08-18T13:50:43;100431.53;;;24.41;100.00
43436;BME280;36399;51.444;-2.018;2022-08-18T13:53:14;100434.78;;;24.49;100.00
43436;BME280;36399;51.444;-2.018;2022-08-18T13:55:40;100435.91;;;24.83;100.00
43436;BME280;36399;51.444;-2.018;2022-08-18T13:58:06;100430.09;;;24.92;100.00
43436;BME280;36399;51.444;-2.018;2022-08-18T14:00:33;100439.19;;;24.90;100.00
43436;BME280;36399;51.444;-2.018;2022-08-18T14:02:59;100430.25;;;25.09;100.00
43436;BME280;36399;51.444;-2.018;2022-08-18T14:05:26;100444.72;;;25.43;100.00
43436;BME280;36399;51.444;-2.018;2022-08-18T14:07:53;100447.13;;;25.49;100.00
43436;BME280;36399;51.444;-2.018;2022-08-18T14:10:19;100433.53;;;25.71;100.00
43436;BME280;36399;51.444;-2.018;2022-08-18T14:12:46;100436.63;;;25.81;100.00
43436;BME280;36399;51.444;-2.018;2022-08-18T14:15:13;100438.81;;;24.97;100.00
43436;BME280;36399;51.444;-2.018;2022-08-18T14:17:41;100428.47;;;24.50;100.00
43436;BME280;36399;51.444;-2.018;2022-08-18T14:20:08;100432.28;;;24.45;100.00
43436;BME280;36399;51.444;-2.018;2022-08-18T14:22:56;100428.16;;;24.77;100.00
43436;BME280;36399;51.444;-2.018;2022-08-18T14:25:43;100427.56;;;24.89;100.00
43436;BME280;36399;51.444;-2.018;2022-08-18T14:28:29;100418.56;;;24.90;100.00
43436;BME280;36399;51.444;-2.018;2022-08-18T14:30:57;100416.75;;;25.11;100.00
43436;BME280;36399;51.444;-2.018;2022-08-18T14:33:25;100416.25;;;25.39;100.00
43436;BME280;36399;51.444;-2.018;2022-08-18T14:35:52;100412.88;;;25.16;100.00
43436;BME280;36399;51.444;-2.018;2022-08-18T14:38:19;100413.91;;;24.94;100.00
43436;BME280;36399;51.444;-2.018;2022-08-18T14:40:46;100406.19;;;24.48;100.00
43436;BME280;36399;51.444;-2.018;2022-08-18T14:43:14;100404.47;;;24.47;100.00
43436;BME280;36399;51.444;-2.018;2022-08-18T14:45:42;100399.91;;;24.29;100.00
43436;BME280;36399;51.444;-2.018;2022-08-18T14:48:17;100399.34;;;24.80;100.00
43436;BME280;36399;51.444;-2.018;2022-08-18T14:50:46;100402.22;;;24.95;100.00
43436;BME280;36399;51.444;-2.018;2022-08-18T14:53:17;100394.75;;;25.39;100.00
43436;BME280;36399;51.444;-2.018;2022-08-18T14:55:46;100399.56;;;24.95;100.00
43436;BME280;36399;51.444;-2.018;2022-08-18T14:58:13;100389.94;;;25.45;100.00
43436;BME280;36399;51.444;-2.018;2022-08-18T15:00:39;100378.94;;;26.38;100.00
43436;BME280;36399;51.444;-2.018;2022-08-18T15:03:05;100381.22;;;27.57;100.00
43436;BME280;36399;51.444;-2.018;2022-08-18T15:05:35;100380.63;;;28.42;100.00
43436;BME280;36399;51.444;-2.018;2022-08-18T15:08:02;100382.09;;;28.90;100.00
43436;BME280;36399;51.444;-2.018;2022-08-18T15:10:29;100377.97;;;28.12;100.00
43436;BME280;36399;51.444;-2.018;2022-08-18T15:12:56;100376.53;;;27.77;100.00
43436;BME280;36399;51.444;-2.018;2022-08-18T15:15:22;100378.50;;;27.57;100.00
43436;BME280;36399;51.444;-2.018;2022-08-18T15:17:50;100374.88;;;26.47;100.00
43436;BME280;36399;51.444;-2.018;2022-08-18T15:20:16;100374.13;;;26.27;100.00